Time;durP1;ratioP1;P1;durP2;ratioP2;P2;SDS_P1;SDS_P2;PMS_P1;PMS_P2;Temp;Humidity;BMP_temperature;BMP_pressure;BME280_temperature;BME280_humidity;BME280_pressure;Samples;Min_cycle;Max_cycle;Signal;HPM_P1;HPM_P2
2023/11/23 00:00:14;;;;;;;31.52;13.07;;;10.70;99.90;;;;;;5052950;28;20724;-45
2023/11/23 00:02:41;;;;;;;31.27;13.57;;;10.70;99.90;;;;;;5049297;28;20183;-45
2023/11/23 00:05:08;;;;;;;28.05;12.93;;;10.80;99.90;;;;;;5053490;28;20302;-47
2023/11/23 00:07:35;;;;;;;21.63;12.73;;;10.80;99.90;;;;;;5048668;28;20302;-47
2023/11/23 00:10:01;;;;;;;29.23;13.55;;;10.80;99.90;;;;;;5050617;28;20193;-50
2023/11/23 00:12:27;;;;;;;30.50;13.30;;;10.80;99.90;;;;;;5050123;28;20194;-47
2023/11/23 00:14:53;;;;;;;31.40;13.40;;;10.80;99.90;;;;;;5048732;28;20589;-47
2023/11/23 00:17:19;;;;;;;31.60;12.55;;;10.90;99.90;;;;;;5048578;28;20274;-46
2023/11/23 00:19:48;;;;;;;27.92;13.20;;;10.90;99.90;;;;;;5049956;28;20289;-45
2023/11/23 00:22:17;;;;;;;31.25;13.13;;;10.90;99.90;;;;;;5049389;28;20191;-45
2023/11/23 00:24:43;;;;;;;36.67;12.90;;;10.90;99.90;;;;;;5050047;28;20539;-44
2023/11/23 00:27:08;;;;;;;26.63;12.40;;;10.90;99.90;;;;;;5052011;28;20202;-49
2023/11/23 00:29:34;;;;;;;30.77;13.30;;;10.90;99.90;;;;;;5050984;28;20199;-47
2023/11/23 00:32:01;;;;;;;25.33;12.50;;;10.90;99.90;;;;;;5050908;28;20285;-50
2023/11/23 00:34:26;;;;;;;28.05;12.10;;;10.90;99.90;;;;;;5049981;28;20294;-46
2023/11/23 00:36:52;;;;;;;25.85;11.68;;;11.00;99.90;;;;;;5049698;28;20650;-47
2023/11/23 00:39:18;;;;;;;22.83;10.98;;;11.00;99.90;;;;;;5049680;28;20269;-42
2023/11/23 00:41:44;;;;;;;29.02;11.68;;;11.00;99.90;;;;;;5050899;28;20190;-51
2023/11/23 00:44:10;;;;;;;31.10;10.82;;;11.00;99.90;;;;;;5068066;28;20662;-50
2023/11/23 00:46:36;;;;;;;28.75;10.38;;;11.00;99.90;;;;;;5052966;28;20186;-41
2023/11/23 00:49:04;;;;;;;18.92;9.75;;;11.00;99.90;;;;;;5049862;28;20270;-47
2023/11/23 00:51:32;;;;;;;28.95;8.90;;;11.10;99.90;;;;;;5049193;28;20227;-52
2023/11/23 00:53:58;;;;;;;18.02;7.85;;;11.10;99.90;;;;;;5047720;28;20190;-44
2023/11/23 00:56:24;;;;;;;21.27;7.82;;;11.10;99.90;;;;;;5048767;28;20194;-43
2023/11/23 00:58:51;;;;;;;21.10;7.10;;;11.20;99.90;;;;;;5066031;28;20643;-43
2023/11/23 01:01:18;;;;;;;20.02;6.30;;;11.20;99.90;;;;;;5052867;28;20294;-50
2023/11/23 01:03:44;;;;;;;19.50;6.10;;;11.20;99.90;;;;;;5054034;28;21347;-49
2023/11/23 01:06:11;;;;;;;22.48;5.85;;;11.30;99.90;;;;;;5054735;28;20187;-46
2023/11/23 01:08:37;;;;;;;17.60;6.13;;;11.30;99.90;;;;;;5069414;28;20544;-47
2023/11/23 01:11:04;;;;;;;20.08;5.85;;;11.30;99.90;;;;;;5050908;28;20190;-45
2023/11/23 01:13:29;;;;;;;20.42;5.05;;;11.40;99.90;;;;;;5055010;28;20600;-42
2023/11/23 01:15:56;;;;;;;17.45;5.82;;;11.40;99.90;;;;;;5051692;28;20213;-46
2023/11/23 01:18:23;;;;;;;13.80;4.60;;;11.50;99.90;;;;;;5050513;28;20187;-48
2023/11/23 01:20:50;;;;;;;21.25;4.85;;;11.50;99.90;;;;;;5068668;28;20260;-44
2023/11/23 01:23:16;;;;;;;20.27;4.75;;;11.50;99.90;;;;;;5051581;28;20212;-45
2023/11/23 01:25:42;;;;;;;16.95;4.85;;;11.50;99.90;;;;;;5051186;28;20579;-48
2023/11/23 01:28:09;;;;;;;15.98;4.75;;;11.60;99.90;;;;;;5067910;28;20202;-44
2023/11/23 01:30:34;;;;;;;20.23;4.47;;;11.60;99.90;;;;;;5051098;28;20624;-49
2023/11/23 01:33:00;;;;;;;17.48;4.38;;;11.60;99.90;;;;;;5051851;28;20304;-48
2023/11/23 01:35:26;;;;;;;16.67;4.10;;;11.70;99.90;;;;;;5054297;28;20601;-45
2023/11/23 01:37:52;;;;;;;21.55;4.47;;;11.70;99.90;;;;;;5049943;28;20191;-47
2023/11/23 01:40:18;;;;;;;21.60;3.97;;;11.70;99.90;;;;;;5055323;28;20631;-44
2023/11/23 01:42:44;;;;;;;21.10;4.32;;;11.70;99.90;;;;;;5052598;28;20210;-44
2023/11/23 01:45:10;;;;;;;14.80;4.05;;;11.80;99.90;;;;;;5038294;28;20187;-45
2023/11/23 01:47:39;;;;;;;20.90;4.68;;;11.80;99.90;;;;;;5062347;28;20690;-42
2023/11/23 01:50:07;;;;;;;16.55;4.10;;;11.80;99.90;;;;;;5049843;28;20711;-47
2023/11/23 01:52:34;;;;;;;17.05;3.95;;;11.80;99.90;;;;;;5065817;28;20269;-48
2023/11/23 01:55:01;;;;;;;20.30;4.32;;;11.80;99.90;;;;;;5065852;28;20211;-43
2023/11/23 01:57:31;;;;;;;22.52;3.90;;;11.90;99.90;;;;;;5066509;28;20193;-45
2023/11/23 01:59:58;;;;;;;24.23;4.57;;;11.90;99.90;;;;;;5060589;28;20213;-46
2023/11/23 02:02:29;;;;;;;18.73;3.65;;;11.90;99.90;;;;;;5053451;28;20213;-45
2023/11/23 02:04:58;;;;;;;16.60;3.83;;;11.90;99.90;;;;;;5048313;28;20187;-45
2023/11/23 02:07:25;;;;;;;23.02;4.40;;;11.90;99.90;;;;;;5049441;28;20692;-45
2023/11/23 02:09:52;;;;;;;19.73;3.92;;;12.00;99.90;;;;;;5047971;28;20566;-46
2023/11/23 02:12:20;;;;;;;17.67;3.90;;;12.00;99.90;;;;;;5049266;28;20199;-47
2023/11/23 02:14:48;;;;;;;22.80;4.43;;;12.00;99.90;;;;;;5069475;28;20210;-47
2023/11/23 02:17:18;;;;;;;23.05;4.55;;;12.00;99.90;;;;;;5050574;28;20682;-43
2023/11/23 02:19:47;;;;;;;19.85;4.20;;;12.00;99.90;;;;;;5049896;28;20284;-43
2023/11/23 02:22:14;;;;;;;23.08;4.90;;;12.10;99.90;;;;;;5052942;28;20217;-45
2023/11/23 02:24:41;;;;;;;31.52;4.70;;;12.10;99.90;;;;;;5051066;28;20272;-44
2023/11/23 02:27:07;;;;;;;20.38;4.22;;;12.10;99.90;;;;;;5062696;28;20175;-45
2023/11/23 02:29:34;;;;;;;24.60;4.40;;;12.10;99.90;;;;;;5051499;28;20289;-46
2023/11/23 02:32:07;;;;;;;19.40;3.85;;;12.10;99.90;;;;;;5049055;28;20183;-48
2023/11/23 02:34:37;;;;;;;27.90;4.60;;;12.10;99.90;;;;;;5059758;28;20309;-46
2023/11/23 02:37:04;;;;;;;20.40;3.80;;;12.10;99.90;;;;;;5053147;28;20183;-47
2023/11/23 02:39:31;;;;;;;21.70;4.28;;;12.20;99.90;;;;;;5051433;28;20679;-49
2023/11/23 02:41:58;;;;;;;19.13;3.88;;;12.20;99.90;;;;;;5067155;28;20183;-46
2023/11/23 02:44:24;;;;;;;17.60;3.92;;;12.10;99.90;;;;;;5066476;28;20191;-49
2023/11/23 02:46:50;;;;;;;15.75;3.60;;;12.10;99.90;;;;;;5049805;28;20203;-49
2023/11/23 02:49:18;;;;;;;32.55;4.53;;;12.20;99.90;;;;;;5066945;28;20189;-47
2023/11/23 02:51:45;;;;;;;25.23;3.70;;;12.10;99.90;;;;;;5052039;28;20230;-45
2023/11/23 02:54:11;;;;;;;16.60;4.22;;;12.10;99.90;;;;;;5049877;28;20221;-43
2023/11/23 02:56:37;;;;;;;26.17;4.05;;;12.10;99.90;;;;;;5051244;28;20195;-46
2023/11/23 02:59:03;;;;;;;19.17;4.07;;;12.10;99.90;;;;;;5031027;28;20187;-45
2023/11/23 03:01:32;;;;;;;22.10;3.97;;;12.10;99.90;;;;;;5065560;28;20186;-42
2023/11/23 03:03:58;;;;;;;20.20;3.67;;;12.10;99.90;;;;;;5047975;28;20175;-49
2023/11/23 03:06:24;;;;;;;20.67;3.88;;;12.10;99.90;;;;;;5049323;28;20584;-44
2023/11/23 03:08:51;;;;;;;17.75;3.75;;;12.00;99.90;;;;;;5050231;28;20187;-45
2023/11/23 03:11:19;;;;;;;20.98;3.72;;;12.00;99.90;;;;;;5049530;28;20202;-47
2023/11/23 03:13:45;;;;;;;23.95;3.80;;;12.00;99.90;;;;;;5033723;28;20217;-44
2023/11/23 03:16:12;;;;;;;20.33;3.67;;;12.00;99.90;;;;;;5059304;28;20732;-45
2023/11/23 03:18:38;;;;;;;16.73;3.83;;;12.00;99.90;;;;;;5046337;28;20213;-46
2023/11/23 03:21:04;;;;;;;18.20;3.88;;;11.90;99.90;;;;;;5047817;28;20187;-48
2023/11/23 03:23:30;;;;;;;18.67;4.10;;;11.90;99.90;;;;;;5052566;28;20734;-46
2023/11/23 03:25:57;;;;;;;17.95;3.90;;;11.90;99.90;;;;;;5047603;28;20210;-42
2023/11/23 03:28:24;;;;;;;18.10;3.70;;;11.90;99.90;;;;;;5050508;28;20186;-46
2023/11/23 03:30:53;;;;;;;20.15;4.05;;;11.80;99.90;;;;;;5051883;28;20183;-47
2023/11/23 03:33:19;;;;;;;19.88;3.97;;;11.80;99.90;;;;;;5051543;28;20187;-46
2023/11/23 03:35:45;;;;;;;27.05;4.30;;;11.80;99.90;;;;;;5052210;28;20211;-46
2023/11/23 03:38:13;;;;;;;23.90;4.88;;;11.70;99.90;;;;;;5043079;28;20202;-48
2023/11/23 03:40:39;;;;;;;24.45;3.95;;;11.80;99.90;;;;;;5047685;28;20195;-46
2023/11/23 03:43:05;;;;;;;19.20;3.63;;;11.80;99.90;;;;;;5049262;28;20195;-46
2023/11/23 03:45:31;;;;;;;16.73;4.00;;;11.70;99.90;;;;;;5048091;28;20191;-50
2023/11/23 03:48:00;;;;;;;15.35;3.75;;;11.80;99.90;;;;;;5051732;28;20217;-50
2023/11/23 03:50:25;;;;;;;20.88;3.85;;;11.70;99.90;;;;;;5048952;28;20200;-47
2023/11/23 03:52:51;;;;;;;18.40;3.97;;;11.80;99.90;;;;;;5051396;28;20226;-45
2023/11/23 03:55:18;;;;;;;19.08;3.67;;;11.70;99.90;;;;;;5050012;28;20226;-45
2023/11/23 03:57:45;;;;;;;21.77;3.80;;;11.80;99.90;;;;;;5051831;28;20283;-45
2023/11/23 04:00:13;;;;;;;20.67;4.13;;;11.70;99.90;;;;;;5052931;28;20178;-50
2023/11/23 04:02:39;;;;;;;24.30;3.58;;;11.80;99.90;;;;;;5051256;28;20277;-48
2023/11/23 04:05:05;;;;;;;23.80;4.03;;;11.70;99.90;;;;;;5047519;28;20183;-44
2023/11/23 04:07:34;;;;;;;19.08;3.67;;;11.70;99.90;;;;;;5050103;28;20604;-48
2023/11/23 04:10:03;;;;;;;24.08;4.40;;;11.70;99.90;;;;;;5048981;28;20199;-46
2023/11/23 04:12:30;;;;;;;25.45;4.55;;;11.70;99.90;;;;;;5050345;28;20187;-44
2023/11/23 04:14:56;;;;;;;24.75;4.05;;;11.70;99.90;;;;;;5051438;28;20210;-42
2023/11/23 04:17:22;;;;;;;20.88;4.18;;;11.70;99.90;;;;;;5049899;28;20186;-44
2023/11/23 04:19:48;;;;;;;17.88;4.05;;;11.70;99.90;;;;;;5030001;28;20194;-48
2023/11/23 04:22:14;;;;;;;25.13;4.65;;;11.60;99.90;;;;;;5052111;28;20191;-45
2023/11/23 04:24:41;;;;;;;20.75;4.18;;;11.60;99.90;;;;;;5030951;28;20221;-48
2023/11/23 04:27:07;;;;;;;23.02;3.70;;;11.60;99.90;;;;;;5048758;28;20195;-41
2023/11/23 04:29:33;;;;;;;31.30;4.70;;;11.60;99.90;;;;;;5049236;28;20777;-46
2023/11/23 04:31:58;;;;;;;21.42;4.20;;;11.60;99.90;;;;;;5049466;28;20195;-49
2023/11/23 04:34:24;;;;;;;25.65;4.60;;;11.60;99.90;;;;;;5050651;28;20205;-47
2023/11/23 04:36:50;;;;;;;21.25;4.10;;;11.50;99.90;;;;;;5050677;28;20284;-46
2023/11/23 04:39:16;;;;;;;19.05;4.03;;;11.50;99.90;;;;;;5054043;28;20683;-46
2023/11/23 04:41:42;;;;;;;20.30;4.22;;;11.40;99.90;;;;;;5050258;28;20197;-45
2023/11/23 04:44:08;;;;;;;12.57;3.58;;;11.40;99.90;;;;;;5054710;28;20183;-43
2023/11/23 04:46:34;;;;;;;19.75;3.85;;;11.40;99.90;;;;;;5062320;28;20194;-46
2023/11/23 04:49:00;;;;;;;25.27;4.68;;;11.40;99.90;;;;;;5054682;28;20190;-46
2023/11/23 04:51:25;;;;;;;24.63;5.05;;;11.40;99.90;;;;;;5052709;28;20258;-51
2023/11/23 04:53:51;;;;;;;30.10;4.25;;;11.30;99.90;;;;;;5052616;28;20675;-50
2023/11/23 04:56:18;;;;;;;17.20;4.03;;;11.30;99.90;;;;;;5055048;28;20780;-48
2023/11/23 04:58:44;;;;;;;25.50;4.70;;;11.30;99.90;;;;;;5052430;28;20670;-44
2023/11/23 05:01:10;;;;;;;22.08;4.30;;;11.30;99.90;;;;;;5055903;28;20243;-48
2023/11/23 05:03:36;;;;;;;22.48;4.18;;;11.30;99.90;;;;;;5052657;28;20558;-43
2023/11/23 05:06:02;;;;;;;21.27;4.13;;;11.20;99.90;;;;;;5051538;28;20206;-45
2023/11/23 05:08:28;;;;;;;24.48;4.68;;;11.20;99.90;;;;;;5053859;28;20191;-47
2023/11/23 05:10:54;;;;;;;20.63;4.22;;;11.20;99.90;;;;;;5050843;28;20190;-45
2023/11/23 05:13:20;;;;;;;22.30;4.53;;;11.10;99.90;;;;;;5055494;28;20195;-42
2023/11/23 05:15:46;;;;;;;22.75;4.10;;;11.20;99.90;;;;;;5049449;28;20263;-45
2023/11/23 05:18:15;;;;;;;23.08;4.32;;;11.20;99.90;;;;;;5070499;28;20198;-43
2023/11/23 05:20:42;;;;;;;23.73;4.20;;;11.10;99.90;;;;;;5052778;28;20240;-42
2023/11/23 05:23:07;;;;;;;30.13;4.40;;;11.10;99.90;;;;;;5055409;28;20773;-43
2023/11/23 05:25:34;;;;;;;22.80;3.95;;;11.10;99.90;;;;;;5054835;28;20199;-44
2023/11/23 05:28:00;;;;;;;18.13;3.72;;;11.10;99.90;;;;;;5051474;28;20640;-42
2023/11/23 05:30:27;;;;;;;19.15;4.00;;;11.10;99.90;;;;;;5053548;28;20187;-44
2023/11/23 05:32:53;;;;;;;22.77;3.85;;;11.10;99.90;;;;;;5053009;28;20242;-52
2023/11/23 05:35:19;;;;;;;23.90;4.15;;;11.10;99.90;;;;;;5053189;28;20221;-46
2023/11/23 05:37:45;;;;;;;17.42;4.20;;;11.10;99.90;;;;;;5052671;28;20199;-46
2023/11/23 05:40:12;;;;;;;27.42;4.53;;;11.10;99.90;;;;;;5050952;28;20188;-47
2023/11/23 05:42:39;;;;;;;18.20;3.55;;;11.10;99.90;;;;;;5054868;28;20191;-47
2023/11/23 05:45:08;;;;;;;25.58;4.10;;;11.10;99.90;;;;;;5052416;28;20178;-41
2023/11/23 05:47:35;;;;;;;24.65;4.07;;;11.10;99.90;;;;;;5051338;28;20274;-43
2023/11/23 05:50:03;;;;;;;18.40;4.20;;;11.10;99.90;;;;;;5051146;28;20191;-50
2023/11/23 05:52:30;;;;;;;23.95;4.57;;;11.20;99.90;;;;;;5052058;28;20234;-50
2023/11/23 05:54:56;;;;;;;24.95;4.25;;;11.20;99.90;;;;;;5050119;28;20281;-45
2023/11/23 05:57:26;;;;;;;25.45;4.25;;;11.30;99.90;;;;;;5051516;28;20186;-45
2023/11/23 05:59:52;;;;;;;27.88;4.35;;;11.30;99.90;;;;;;5052658;28;20201;-45
2023/11/23 06:02:21;;;;;;;21.30;4.10;;;11.30;99.90;;;;;;5051604;28;20232;-45
2023/11/23 06:04:47;;;;;;;24.73;4.13;;;11.30;99.90;;;;;;5052886;28;20219;-48
2023/11/23 06:07:15;;;;;;;21.85;4.10;;;11.30;99.90;;;;;;5051781;28;20256;-44
2023/11/23 06:09:42;;;;;;;26.13;4.57;;;11.20;99.90;;;;;;5050895;28;20186;-47
2023/11/23 06:12:08;;;;;;;22.50;3.80;;;11.20;99.90;;;;;;5053170;28;20200;-46
2023/11/23 06:14:36;;;;;;;25.88;4.65;;;11.20;99.90;;;;;;5053413;28;20239;-46
2023/11/23 06:17:14;;;;;;;19.25;4.05;;;11.20;99.90;;;;;;5054357;28;20197;-48
2023/11/23 06:19:43;;;;;;;20.92;4.30;;;11.10;99.90;;;;;;5049292;28;20197;-48
2023/11/23 06:22:09;;;;;;;18.30;3.90;;;11.10;99.90;;;;;;5049711;28;20194;-46
2023/11/23 06:24:35;;;;;;;23.58;5.15;;;11.10;99.90;;;;;;5050620;28;20881;-43
2023/11/23 06:27:01;;;;;;;24.75;4.50;;;11.10;99.90;;;;;;5051076;28;20187;-48
2023/11/23 06:29:26;;;;;;;24.00;4.53;;;11.20;99.90;;;;;;5054351;28;20208;-43
2023/11/23 06:31:52;;;;;;;21.02;4.20;;;11.20;99.90;;;;;;5050717;28;20683;-46
2023/11/23 06:34:18;;;;;;;19.10;4.07;;;11.20;99.90;;;;;;5054229;28;20217;-43
2023/11/23 06:36:44;;;;;;;21.95;4.40;;;11.20;99.90;;;;;;5049993;28;20241;-48
2023/11/23 06:39:11;;;;;;;22.73;4.22;;;11.30;99.90;;;;;;5049936;28;20721;-46
2023/11/23 06:41:37;;;;;;;31.08;4.40;;;11.30;99.90;;;;;;5049913;28;20189;-48
2023/11/23 06:44:03;;;;;;;23.27;4.47;;;11.30;99.90;;;;;;5054461;28;20191;-46
2023/11/23 06:46:29;;;;;;;20.00;4.28;;;11.20;99.90;;;;;;5054577;28;20190;-46
2023/11/23 06:48:56;;;;;;;19.20;3.88;;;11.20;99.90;;;;;;5052903;28;20186;-45
2023/11/23 06:51:22;;;;;;;27.60;5.05;;;11.20;99.90;;;;;;5053654;28;20275;-43
2023/11/23 06:53:48;;;;;;;22.67;4.35;;;11.20;99.90;;;;;;5054319;28;20195;-50
2023/11/23 06:56:14;;;;;;;23.48;4.45;;;11.20;99.90;;;;;;5048139;28;20214;-44
2023/11/23 06:58:47;;;;;;;26.20;4.72;;;11.20;99.90;;;;;;5049200;28;20187;-46
2023/11/23 07:01:14;;;;;;;18.45;4.03;;;11.20;99.90;;;;;;5054125;28;20652;-45
2023/11/23 07:03:41;;;;;;;15.60;3.65;;;11.30;99.90;;;;;;5051126;28;20238;-50
2023/11/23 07:06:07;;;;;;;19.45;4.00;;;11.30;99.90;;;;;;5053514;28;20190;-46
2023/11/23 07:08:34;;;;;;;18.08;4.00;;;11.40;99.90;;;;;;5048819;28;20564;-42
2023/11/23 07:11:01;;;;;;;19.67;3.65;;;11.40;99.90;;;;;;5049462;28;21076;-44
2023/11/23 07:13:27;;;;;;;19.67;3.55;;;11.50;99.90;;;;;;5059655;28;20389;-46
2023/11/23 07:15:55;;;;;;;21.80;3.80;;;11.50;99.90;;;;;;5049150;28;20426;-46
2023/11/23 07:18:21;;;;;;;17.17;3.72;;;11.50;99.90;;;;;;5050594;28;20236;-49
2023/11/23 07:20:48;;;;;;;18.13;3.75;;;11.60;99.90;;;;;;5052791;28;20538;-47
2023/11/23 07:23:14;;;;;;;20.60;4.15;;;11.60;99.90;;;;;;5067110;28;20183;-47
2023/11/23 07:25:43;;;;;;;19.08;3.40;;;11.60;99.90;;;;;;5046698;28;20199;-44
2023/11/23 07:28:12;;;;;;;19.15;3.80;;;11.70;99.90;;;;;;5053272;28;20194;-46
2023/11/23 07:30:39;;;;;;;23.17;4.32;;;11.70;99.90;;;;;;5049655;28;20696;-45
2023/11/23 07:33:06;;;;;;;16.65;3.65;;;11.80;99.90;;;;;;5052523;28;20178;-46
2023/11/23 07:35:32;;;;;;;14.82;3.35;;;11.80;99.90;;;;;;5048742;28;20219;-48
2023/11/23 07:37:58;;;;;;;17.58;3.25;;;11.90;99.90;;;;;;5052018;28;20535;-46
2023/11/23 07:40:24;;;;;;;19.67;3.83;;;11.90;99.90;;;;;;5064413;28;20191;-45
2023/11/23 07:42:50;;;;;;;13.43;3.72;;;11.90;99.90;;;;;;5049948;28;20257;-49
2023/11/23 07:45:16;;;;;;;16.52;3.63;;;12.00;99.90;;;;;;5050211;28;20195;-46
2023/11/23 07:47:43;;;;;;;15.85;3.67;;;12.00;99.90;;;;;;5066774;28;20285;-50
2023/11/23 07:50:10;;;;;;;17.75;3.40;;;12.00;99.90;;;;;;5050437;28;20226;-45
2023/11/23 07:52:37;;;;;;;16.95;3.28;;;12.10;99.90;;;;;;5049974;28;20304;-47
2023/11/23 07:55:04;;;;;;;18.40;3.30;;;12.10;99.90;;;;;;5049941;28;20223;-48
2023/11/23 07:57:30;;;;;;;19.98;3.97;;;12.10;99.90;;;;;;5049336;28;20194;-49
2023/11/23 07:59:59;;;;;;;17.30;2.88;;;12.10;99.90;;;;;;5047051;28;20290;-47
2023/11/23 08:02:25;;;;;;;19.73;4.13;;;12.10;99.90;;;;;;5049217;28;20750;-45
2023/11/23 08:04:51;;;;;;;15.43;3.47;;;12.10;99.90;;;;;;5050860;28;20221;-45
2023/11/23 08:07:17;;;;;;;21.85;3.63;;;12.10;99.90;;;;;;5058640;28;20229;-48
2023/11/23 08:09:43;;;;;;;12.32;3.17;;;12.20;99.90;;;;;;5051966;28;20673;-47
2023/11/23 08:12:11;;;;;;;15.85;3.20;;;12.20;99.90;;;;;;5052578;28;20214;-47
2023/11/23 08:14:38;;;;;;;15.75;2.83;;;12.20;99.90;;;;;;5049638;28;20218;-46
2023/11/23 08:17:08;;;;;;;19.90;3.30;;;12.20;99.90;;;;;;5050764;28;20581;-46
2023/11/23 08:19:34;;;;;;;15.45;3.40;;;12.20;99.90;;;;;;5048131;28;20229;-45
2023/11/23 08:22:02;;;;;;;17.33;3.38;;;12.20;99.90;;;;;;5048395;28;20195;-43
2023/11/23 08:24:28;;;;;;;22.08;3.65;;;12.20;99.90;;;;;;5050435;28;20213;-47
2023/11/23 08:26:54;;;;;;;19.38;3.67;;;12.20;99.90;;;;;;5048228;28;20285;-45
2023/11/23 08:29:20;;;;;;;19.65;3.40;;;12.20;99.90;;;;;;5051827;28;20247;-48
2023/11/23 08:31:46;;;;;;;17.45;3.20;;;12.20;99.90;;;;;;5049689;28;20543;-44
2023/11/23 08:34:12;;;;;;;14.55;3.38;;;12.20;99.90;;;;;;5048828;28;20187;-49
2023/11/23 08:36:41;;;;;;;16.73;3.20;;;12.20;99.90;;;;;;5049327;28;20199;-46
2023/11/23 08:39:12;;;;;;;21.83;3.78;;;12.30;99.90;;;;;;5047801;28;20285;-47
2023/11/23 08:41:38;;;;;;;14.35;2.80;;;12.30;99.90;;;;;;5049545;28;20208;-46
2023/11/23 08:44:05;;;;;;;14.85;3.15;;;12.40;99.90;;;;;;5048612;28;20537;-45
2023/11/23 08:46:33;;;;;;;16.60;3.28;;;12.40;99.90;;;;;;5030300;28;20299;-45
2023/11/23 08:49:00;;;;;;;14.43;3.17;;;12.50;99.90;;;;;;5064864;28;20286;-42
2023/11/23 08:51:26;;;;;;;13.43;3.08;;;12.50;99.90;;;;;;5048483;28;20225;-47
2023/11/23 08:53:52;;;;;;;16.17;3.80;;;12.50;99.90;;;;;;5052928;28;20196;-46
2023/11/23 08:56:18;;;;;;;18.63;3.20;;;12.60;99.90;;;;;;5051297;28;20203;-49
2023/11/23 08:58:43;;;;;;;21.45;3.97;;;12.60;99.90;;;;;;5049323;28;20681;-49
2023/11/23 09:01:10;;;;;;;18.80;3.40;;;12.70;99.90;;;;;;5049524;28;20187;-49
2023/11/23 09:03:36;;;;;;;13.07;3.60;;;12.80;99.90;;;;;;5052170;28;20202;-47
2023/11/23 09:06:02;;;;;;;15.35;2.70;;;12.90;99.90;;;;;;5050422;28;20191;-49
2023/11/23 09:08:29;;;;;;;13.70;3.55;;;13.00;99.90;;;;;;5047845;28;20241;-47
2023/11/23 09:10:55;;;;;;;10.32;2.65;;;13.00;99.90;;;;;;5050236;28;20244;-47
2023/11/23 09:13:27;;;;;;;16.08;3.10;;;13.10;99.90;;;;;;5046438;28;20186;-52
2023/11/23 09:15:56;;;;;;;8.70;2.33;;;13.20;99.90;;;;;;5048196;28;20318;-47
2023/11/23 09:18:22;;;;;;;19.42;3.63;;;13.30;99.90;;;;;;5051371;28;20194;-48
2023/11/23 09:20:50;;;;;;;10.13;2.72;;;13.30;99.90;;;;;;5048369;28;20179;-42
2023/11/23 09:23:17;;;;;;;17.50;3.15;;;13.30;99.90;;;;;;5050674;28;20183;-46
2023/11/23 09:25:44;;;;;;;14.43;2.95;;;13.30;99.90;;;;;;5052306;28;20188;-45
2023/11/23 09:28:10;;;;;;;13.70;3.00;;;13.30;99.90;;;;;;5052954;28;20331;-44
2023/11/23 09:30:35;;;;;;;14.07;2.90;;;13.30;99.90;;;;;;5053283;28;20707;-51
2023/11/23 09:33:01;;;;;;;15.45;3.33;;;13.40;99.90;;;;;;5067874;28;20302;-49
2023/11/23 09:35:28;;;;;;;14.45;2.85;;;13.40;99.90;;;;;;5069398;28;20559;-50
2023/11/23 09:37:54;;;;;;;14.57;3.45;;;13.40;99.90;;;;;;5027917;28;20191;-45
2023/11/23 09:40:20;;;;;;;17.40;2.80;;;13.40;99.90;;;;;;5052891;28;20197;-47
2023/11/23 09:42:47;;;;;;;13.73;2.90;;;13.50;99.90;;;;;;5012517;28;20230;-47
2023/11/23 09:45:20;;;;;;;11.70;2.80;;;13.60;99.90;;;;;;5053249;28;20182;-45
2023/11/23 09:47:50;;;;;;;15.60;3.13;;;13.60;99.90;;;;;;5050845;28;20190;-46
2023/11/23 09:50:19;;;;;;;18.77;3.63;;;13.60;99.90;;;;;;5054668;28;20378;-44
2023/11/23 09:52:46;;;;;;;13.13;2.40;;;13.60;99.90;;;;;;5052015;28;20324;-45
2023/11/23 09:55:16;;;;;;;12.57;3.03;;;13.70;99.90;;;;;;5054118;28;20709;-50
2023/11/23 09:57:48;;;;;;;18.75;3.63;;;13.70;99.90;;;;;;5055041;28;20186;-46
2023/11/23 10:00:14;;;;;;;19.35;3.50;;;13.70;99.90;;;;;;5054269;28;20191;-49
2023/11/23 10:02:50;;;;;;;12.52;2.88;;;13.70;99.90;;;;;;5049406;28;20195;-48
2023/11/23 10:05:17;;;;;;;16.10;2.88;;;13.70;99.90;;;;;;5052362;28;20190;-49
2023/11/23 10:07:44;;;;;;;12.98;2.78;;;13.80;99.90;;;;;;5051699;28;20551;-47
2023/11/23 10:10:11;;;;;;;12.95;2.58;;;13.80;99.90;;;;;;5054112;28;20214;-44
2023/11/23 10:12:37;;;;;;;9.00;2.15;;;13.80;99.90;;;;;;5051122;28;20303;-48
2023/11/23 10:15:06;;;;;;;13.20;2.72;;;13.90;99.90;;;;;;5050895;28;20210;-46
2023/11/23 10:17:33;;;;;;;13.80;2.88;;;13.90;99.90;;;;;;5066504;28;20182;-45
2023/11/23 10:20:16;;;;;;;11.30;2.80;;;13.90;99.90;;;;;;5051868;28;20215;-45
2023/11/23 10:22:45;;;;;;;14.02;2.67;;;13.90;99.90;;;;;;5053335;28;20190;-49
2023/11/23 10:25:37;;;;;;;15.07;2.92;;;13.90;99.90;;;;;;5052210;28;20202;-49
2023/11/23 10:28:06;;;;;;;11.98;2.72;;;13.90;99.90;;;;;;5050319;28;20719;-49
2023/11/23 10:30:33;;;;;;;15.57;3.17;;;13.90;99.90;;;;;;5050394;28;20232;-47
2023/11/23 10:33:00;;;;;;;16.17;3.70;;;13.90;99.90;;;;;;5051910;28;20237;-53
2023/11/23 10:35:40;;;;;;;13.02;3.25;;;13.90;99.90;;;;;;5051833;28;20210;-47
2023/11/23 10:38:07;;;;;;;15.45;3.55;;;13.90;99.90;;;;;;5052913;28;20190;-47
2023/11/23 10:40:34;;;;;;;15.73;2.78;;;13.90;99.90;;;;;;5048984;28;20203;-46
2023/11/23 10:43:01;;;;;;;15.90;2.70;;;13.90;99.90;;;;;;5048921;28;20274;-50
2023/11/23 10:45:28;;;;;;;11.10;2.92;;;13.90;99.90;;;;;;5050167;28;20184;-48
2023/11/23 10:47:58;;;;;;;13.85;3.10;;;14.00;99.90;;;;;;5053209;28;20264;-46
2023/11/23 10:50:25;;;;;;;11.68;2.70;;;14.00;99.90;;;;;;5052116;28;20187;-48
2023/11/23 10:52:56;;;;;;;15.40;3.15;;;14.00;99.90;;;;;;5049777;28;20223;-50
2023/11/23 10:55:24;;;;;;;13.30;2.53;;;14.00;99.90;;;;;;5051766;28;20198;-46
2023/11/23 10:58:17;;;;;;;12.85;2.75;;;14.10;99.90;;;;;;5051958;28;20237;-50
2023/11/23 11:00:44;;;;;;;18.90;3.30;;;14.10;99.90;;;;;;5049913;28;20289;-51
2023/11/23 11:03:12;;;;;;;11.55;3.05;;;14.10;99.90;;;;;;5045177;28;20207;-45
2023/11/23 11:05:45;;;;;;;9.93;2.53;;;14.10;99.90;;;;;;5052601;28;20290;-49
2023/11/23 11:08:17;;;;;;;14.25;2.97;;;14.20;99.90;;;;;;5049903;28;20197;-48
2023/11/23 11:10:53;;;;;;;20.83;3.85;;;14.10;99.90;;;;;;5049971;28;20273;-46
2023/11/23 11:13:25;;;;;;;19.67;3.10;;;14.10;99.90;;;;;;5048292;28;20201;-47
2023/11/23 11:15:58;;;;;;;16.67;2.78;;;14.10;99.90;;;;;;5048859;28;20210;-45
2023/11/23 11:18:29;;;;;;;14.93;3.38;;;14.10;99.90;;;;;;5048779;28;20638;-45
2023/11/23 11:21:02;;;;;;;12.85;2.97;;;14.10;99.90;;;;;;5048727;28;20281;-43
2023/11/23 11:23:50;;;;;;;15.23;3.33;;;14.10;99.90;;;;;;5047325;28;20270;-50
2023/11/23 11:26:21;;;;;;;17.33;3.25;;;14.10;99.90;;;;;;5051117;28;20273;-48
2023/11/23 11:28:58;;;;;;;21.65;3.90;;;14.00;99.90;;;;;;5051068;28;20219;-45
2023/11/23 11:31:35;;;;;;;16.27;3.67;;;14.00;99.90;;;;;;5047809;28;20186;-46
2023/11/23 11:34:03;;;;;;;17.10;3.58;;;14.00;99.90;;;;;;5048179;28;20187;-48
2023/11/23 11:36:32;;;;;;;16.00;3.22;;;14.00;99.90;;;;;;5051268;28;20283;-50
2023/11/23 11:38:59;;;;;;;13.80;3.63;;;14.10;99.90;;;;;;5049867;28;20187;-45
2023/11/23 11:41:29;;;;;;;10.40;2.35;;;14.10;99.90;;;;;;5051892;28;20270;-48
2023/11/23 11:43:58;;;;;;;17.85;2.95;;;14.10;99.90;;;;;;5048295;28;20675;-44
2023/11/23 11:46:25;;;;;;;15.85;3.10;;;14.10;99.90;;;;;;5052433;28;20655;-47
2023/11/23 11:48:50;;;;;;;12.23;2.47;;;14.10;99.90;;;;;;5051934;28;20662;-46
2023/11/23 11:51:17;;;;;;;11.77;3.28;;;14.10;99.90;;;;;;5051363;28;20187;-48
2023/11/23 11:53:46;;;;;;;16.27;3.58;;;14.10;99.90;;;;;;5050416;28;20564;-43
2023/11/23 11:56:13;;;;;;;23.75;3.47;;;14.10;99.90;;;;;;5067642;28;20236;-49
2023/11/23 11:58:39;;;;;;;17.42;3.50;;;14.10;99.90;;;;;;5051404;28;20270;-43
2023/11/23 12:01:08;;;;;;;19.33;3.97;;;14.10;99.90;;;;;;5044153;28;20179;-49
2023/11/23 12:03:35;;;;;;;12.80;3.05;;;14.10;99.90;;;;;;5049196;28;20616;-46
2023/11/23 12:06:03;;;;;;;18.17;3.92;;;14.10;99.90;;;;;;5050486;28;20191;-44
2023/11/23 12:08:36;;;;;;;12.05;3.10;;;14.10;99.90;;;;;;5049538;28;20233;-44
2023/11/23 12:11:03;;;;;;;14.80;3.53;;;14.10;99.90;;;;;;5051710;28;20194;-50
2023/11/23 12:13:31;;;;;;;13.82;3.63;;;14.10;99.90;;;;;;5054309;28;20257;-49
2023/11/23 12:15:57;;;;;;;13.82;3.50;;;14.10;99.90;;;;;;5046457;28;20222;-47
2023/11/23 12:18:35;;;;;;;16.83;4.07;;;14.20;99.90;;;;;;5049059;28;20179;-48
2023/11/23 12:21:11;;;;;;;13.93;3.33;;;14.20;99.90;;;;;;5049581;28;20647;-49
2023/11/23 12:23:43;;;;;;;15.07;3.58;;;14.30;99.90;;;;;;5050137;28;20182;-49
2023/11/23 12:26:10;;;;;;;16.52;3.50;;;14.30;99.90;;;;;;5053352;28;20208;-45
2023/11/23 12:28:37;;;;;;;16.70;3.67;;;14.30;99.90;;;;;;5050818;28;20804;-49
2023/11/23 12:31:03;;;;;;;19.55;3.80;;;14.30;99.90;;;;;;5048012;28;20469;-45
2023/11/23 12:33:29;;;;;;;17.95;4.10;;;14.30;99.90;;;;;;5050152;28;20222;-48
2023/11/23 12:35:55;;;;;;;22.48;3.55;;;14.30;99.90;;;;;;5047586;28;20198;-44